This is the latest recevied weather packets stored in our database for station/object WB8SKP-WX. If no packets are shown the sender has not sent any weather packets the latest 10 day(s).
| Time | Temp. | Humidity | Pressure | Rain* | Wind** | Luminosity | Snow |
|---|---|---|---|---|---|---|---|
| 1777732250 | 13.89° C | 59% | 998.6 hPa | 0 mm | - | - | - |
| 1777731020 | 13.33° C | 61% | 998.6 hPa | 0 mm | - | - | - |
| 1777729790 | 12.78° C | 66% | 998.4 hPa | 0 mm | - | - | - |
| 1777728590 | 12.22° C | 70% | 998.4 hPa | 0 mm | - | - | - |
| 1777727360 | 11.11° C | 78% | 998.4 hPa | 0 mm | - | - | - |
| 1777726160 | 9.44° C | 95% | 998.4 hPa | 0 mm | - | - | - |
| 1777724960 | 7.78° C | 99% | 998.2 hPa | 0 mm | - | - | - |
| 1777723729 | 6.11° C | 99% | 998.1 hPa | 0 mm | - | - | - |
| 1777722530 | 5.56° C | 99% | 998 hPa | 0 mm | - | - | - |
| 1777721329 | 5° C | 99% | 997.8 hPa | 0 mm | - | - | - |
| 1777720099 | 5° C | 99% | 997.7 hPa | 0 mm | - | - | - |
| 1777718900 | 5.56° C | 99% | 997.7 hPa | 0 mm | - | - | - |
| 1777717699 | 6.11° C | 99% | 997.5 hPa | 0 mm | - | - | - |
| 1777716499 | 6.11° C | 99% | 997.5 hPa | 0 mm | - | - | - |
| 1777715299 | 6.67° C | 99% | 997.3 hPa | 0 mm | - | - | - |
| 1777714069 | 6.67° C | 99% | 997.2 hPa | 0 mm | - | - | - |
| 1777712869 | 6.11° C | 99% | 997.3 hPa | 0 mm | - | - | - |
| 1777711669 | 6.11° C | 99% | 997.3 hPa | 0 mm | - | - | - |
| 1777710469 | 6.67° C | 99% | 997.4 hPa | 0 mm | - | - | - |
| 1777709269 | 6.67° C | 99% | 997.5 hPa | 0 mm | - | - | - |
| 1777708069 | 7.22° C | 99% | 997.6 hPa | 0 mm | - | - | - |
| 1777706869 | 7.22° C | 97% | 997.7 hPa | 0 mm | - | - | - |
| 1777705669 | 7.78° C | 95% | 997.9 hPa | 0 mm | - | - | - |
| 1777704439 | 7.22° C | 98% | 997.9 hPa | 0 mm | - | - | - |
| 1777703209 | 7.22° C | 96% | 998.3 hPa | 0 mm | - | - | - |
* Rain latest hour (hover to see other rain measurements)
** Current wind speed in m/s (hover to see current wind gust speed)